createdAt,value
2022-11-27T00:00:54.266Z,14.90
2022-11-27T00:01:54.540Z,14.90
2022-11-27T00:02:54.325Z,15.00
2022-11-27T00:03:54.300Z,13.70
2022-11-27T00:04:54.233Z,13.90
2022-11-27T00:05:54.221Z,16.10
2022-11-27T00:06:54.220Z,14.80
2022-11-27T00:07:54.378Z,14.10
2022-11-27T00:08:54.199Z,13.30
2022-11-27T00:09:54.212Z,14.50
2022-11-27T00:10:54.177Z,13.80
2022-11-27T00:11:54.180Z,14.50
2022-11-27T00:12:54.141Z,14.80
2022-11-27T00:13:54.178Z,13.90
2022-11-27T00:14:55.684Z,13.70
2022-11-27T00:15:54.196Z,13.60
2022-11-27T00:16:54.090Z,14.20
2022-11-27T00:17:54.106Z,13.60
2022-11-27T00:18:54.065Z,13.60
2022-11-27T00:19:54.124Z,13.50
2022-11-27T00:21:58.919Z,13.00
2022-11-27T00:22:59.011Z,13.90
2022-11-27T00:23:58.970Z,13.10
2022-11-27T00:24:59.107Z,13.70
2022-11-27T00:25:59.081Z,13.50
2022-11-27T00:26:58.938Z,13.80
2022-11-27T00:27:58.902Z,14.20
2022-11-27T00:29:03.794Z,13.50
2022-11-27T00:30:09.804Z,12.90
2022-11-27T00:31:09.935Z,14.30
2022-11-27T00:32:09.842Z,14.00
2022-11-27T00:33:09.837Z,13.60
2022-11-27T00:34:09.802Z,12.90
2022-11-27T00:35:09.804Z,13.70
2022-11-27T00:36:09.785Z,13.50
2022-11-27T00:37:09.789Z,13.20
2022-11-27T00:38:09.763Z,13.00
2022-11-27T00:39:09.764Z,13.40
2022-11-27T00:42:09.796Z,12.30
2022-11-27T00:43:09.754Z,14.00
2022-11-27T00:44:09.720Z,13.60
2022-11-27T00:45:09.720Z,13.70
2022-11-27T00:46:09.739Z,14.10
2022-11-27T00:47:09.706Z,14.60
2022-11-27T00:48:09.667Z,13.90
2022-11-27T00:49:15.550Z,13.70
2022-11-27T00:50:15.664Z,14.00
2022-11-27T00:51:15.639Z,13.10
2022-11-27T00:52:20.547Z,13.60
2022-11-27T00:53:20.625Z,13.80
2022-11-27T00:54:22.762Z,14.20
2022-11-27T00:55:20.598Z,13.40
2022-11-27T00:56:20.544Z,14.60
2022-11-27T00:57:26.561Z,14.90
2022-11-27T00:58:26.542Z,14.50
2022-11-27T00:59:26.471Z,14.70
2022-11-27T01:00:26.485Z,14.60
2022-11-27T01:01:26.547Z,14.80
2022-11-27T01:02:26.531Z,14.40
2022-11-27T01:03:26.402Z,16.00
2022-11-27T01:04:26.427Z,15.90
2022-11-27T01:05:26.377Z,15.10
2022-11-27T01:06:26.428Z,16.20
2022-11-27T01:07:26.432Z,14.80
2022-11-27T01:08:26.398Z,15.90
2022-11-27T01:09:26.313Z,15.20
2022-11-27T01:10:26.349Z,16.20
2022-11-27T01:11:26.319Z,16.40
2022-11-27T01:12:26.329Z,16.70
2022-11-27T01:13:26.259Z,16.70
2022-11-27T01:14:26.266Z,15.70
2022-11-27T01:15:26.225Z,15.70
2022-11-27T01:16:26.395Z,16.10
2022-11-27T01:17:26.199Z,16.30
2022-11-27T01:18:26.200Z,15.90
2022-11-27T01:19:26.268Z,15.40
2022-11-27T01:20:26.149Z,16.20
2022-11-27T01:21:26.101Z,18.00
2022-11-27T01:22:26.189Z,17.00
2022-11-27T01:23:26.075Z,17.20
2022-11-27T01:24:26.067Z,15.70
2022-11-27T01:25:27.200Z,15.10
2022-11-27T01:26:26.061Z,16.80
2022-11-27T01:27:26.030Z,15.70
2022-11-27T01:28:26.064Z,17.00
2022-11-27T01:29:26.010Z,16.10
2022-11-27T01:30:26.113Z,16.20
2022-11-27T01:31:26.015Z,16.00
2022-11-27T01:32:25.981Z,16.20
2022-11-27T01:33:25.947Z,16.40
2022-11-27T01:34:25.954Z,16.00
2022-11-27T01:35:25.917Z,16.40
2022-11-27T01:36:25.906Z,15.50
2022-11-27T01:37:25.879Z,15.70
2022-11-27T01:38:25.888Z,16.10
2022-11-27T01:39:25.846Z,15.80
2022-11-27T01:40:25.984Z,14.80
2022-11-27T01:41:25.876Z,16.00
2022-11-27T01:42:30.759Z,16.80
2022-11-27T01:43:30.819Z,15.70
2022-11-27T01:44:30.804Z,14.60
2022-11-27T01:45:30.976Z,15.60
2022-11-27T01:46:30.839Z,15.20
2022-11-27T01:47:30.783Z,13.90
2022-11-27T01:48:30.763Z,16.70
2022-11-27T01:49:30.748Z,15.60
2022-11-27T01:50:30.665Z,15.20
2022-11-27T01:51:30.814Z,15.70
2022-11-27T01:52:30.648Z,15.10
2022-11-27T01:53:35.524Z,14.60
2022-11-27T01:54:35.592Z,14.60
2022-11-27T01:55:35.556Z,16.30
2022-11-27T01:56:35.664Z,15.60
2022-11-27T01:57:35.525Z,15.10
2022-11-27T01:58:39.398Z,15.60
2022-11-27T01:59:39.502Z,15.80
2022-11-27T02:00:39.485Z,15.30
2022-11-27T02:01:39.757Z,15.40
2022-11-27T02:02:39.515Z,16.20
2022-11-27T02:03:39.439Z,15.50
2022-11-27T02:04:39.633Z,15.10
2022-11-27T02:05:39.412Z,15.80
2022-11-27T02:06:39.374Z,15.80
2022-11-27T02:07:39.391Z,15.50
2022-11-27T02:08:39.326Z,15.60
2022-11-27T02:09:39.328Z,15.00
2022-11-27T02:10:39.287Z,16.10
2022-11-27T02:11:39.444Z,15.90
2022-11-27T02:12:39.359Z,15.20
2022-11-27T02:13:39.266Z,16.00
2022-11-27T02:14:39.666Z,15.20
2022-11-27T02:15:39.279Z,16.80
2022-11-27T02:16:39.279Z,15.50
2022-11-27T02:17:39.343Z,16.00
2022-11-27T02:18:39.167Z,16.20
2022-11-27T02:19:39.164Z,15.40
2022-11-27T02:20:39.127Z,15.60
2022-11-27T02:21:39.153Z,16.00
2022-11-27T02:22:39.096Z,16.40
2022-11-27T02:23:39.140Z,15.90
2022-11-27T02:24:39.458Z,16.20
2022-11-27T02:25:39.066Z,16.00
2022-11-27T02:26:39.005Z,15.00
2022-11-27T02:27:39.019Z,15.50
2022-11-27T02:28:38.976Z,17.10
2022-11-27T02:29:39.078Z,16.30
2022-11-27T02:30:38.955Z,15.20
2022-11-27T02:31:39.011Z,16.70
2022-11-27T02:32:38.880Z,15.70
2022-11-27T02:33:38.891Z,16.20
2022-11-27T02:34:39.232Z,16.20
2022-11-27T02:35:38.956Z,16.00
2022-11-27T02:36:38.811Z,16.40
2022-11-27T02:37:38.795Z,16.10
2022-11-27T02:38:38.748Z,16.10
2022-11-27T02:39:38.742Z,15.40
2022-11-27T02:40:38.711Z,16.90
2022-11-27T02:41:44.651Z,16.60
2022-11-27T02:42:50.576Z,15.30
2022-11-27T02:43:50.649Z,16.00
2022-11-27T02:44:50.597Z,16.20
2022-11-27T02:45:56.548Z,15.20
2022-11-27T02:46:56.729Z,15.60
2022-11-27T02:47:56.502Z,15.80
2022-11-27T02:48:56.484Z,16.70
2022-11-27T02:49:56.437Z,14.30
2022-11-27T02:50:56.442Z,15.60
2022-11-27T02:51:56.382Z,14.70
2022-11-27T02:52:56.399Z,15.60
2022-11-27T02:55:50.398Z,15.80
2022-11-27T02:56:50.303Z,15.10
2022-11-27T02:57:50.313Z,15.20
2022-11-27T02:58:50.273Z,15.80
2022-11-27T02:59:50.211Z,15.00
2022-11-27T03:00:50.189Z,15.50
2022-11-27T03:01:50.249Z,15.70
2022-11-27T03:02:50.218Z,15.40
2022-11-27T03:03:50.100Z,15.10
2022-11-27T03:04:50.195Z,14.30
2022-11-27T03:05:50.048Z,14.50
2022-11-27T03:06:50.159Z,13.80
2022-11-27T03:07:50.125Z,14.90
2022-11-27T03:08:50.024Z,13.90
2022-11-27T03:09:49.971Z,15.80
2022-11-27T03:10:50.132Z,16.70
2022-11-27T03:11:49.925Z,13.80
2022-11-27T03:12:49.921Z,15.10
2022-11-27T03:13:49.881Z,15.20
2022-11-27T03:14:49.899Z,14.80
2022-11-27T03:15:49.909Z,13.90
2022-11-27T03:16:49.867Z,13.80
2022-11-27T03:17:49.903Z,14.40
2022-11-27T03:18:49.815Z,13.80
2022-11-27T03:19:49.780Z,13.60
2022-11-27T03:20:49.748Z,14.20
2022-11-27T03:21:49.727Z,12.80
2022-11-27T03:22:49.816Z,13.30
2022-11-27T03:23:49.705Z,13.30
2022-11-27T03:24:49.678Z,14.10
2022-11-27T03:25:49.622Z,13.50
2022-11-27T03:26:49.615Z,12.80
2022-11-27T03:27:49.608Z,13.00
2022-11-27T03:28:49.672Z,12.80
2022-11-27T03:29:49.515Z,12.80
2022-11-27T03:30:49.614Z,14.10
2022-11-27T03:31:49.491Z,12.20
2022-11-27T03:32:49.489Z,12.70
2022-11-27T03:33:49.444Z,12.80
2022-11-27T03:34:49.553Z,13.30
2022-11-27T03:35:49.413Z,11.80
2022-11-27T03:36:49.427Z,13.30
2022-11-27T03:37:49.383Z,12.50
2022-11-27T03:38:49.380Z,12.50
2022-11-27T03:39:49.346Z,13.40
2022-11-27T03:40:49.495Z,13.10
2022-11-27T03:41:49.329Z,12.90
2022-11-27T03:42:49.352Z,12.30
2022-11-27T03:43:49.290Z,11.40
2022-11-27T03:44:49.273Z,12.20
2022-11-27T03:45:49.236Z,12.10
2022-11-27T03:46:49.463Z,11.50
2022-11-27T03:47:49.281Z,11.50
2022-11-27T03:48:49.217Z,12.50
2022-11-27T03:49:49.165Z,13.80
2022-11-27T03:50:49.192Z,11.40
2022-11-27T03:51:49.100Z,12.40
2022-11-27T03:52:49.238Z,12.90
2022-11-27T03:53:49.051Z,12.50
2022-11-27T03:54:49.036Z,11.80
2022-11-27T03:55:48.989Z,12.20
2022-11-27T03:56:48.984Z,12.50
2022-11-27T03:57:48.930Z,11.60
2022-11-27T03:58:49.059Z,12.10
2022-11-27T03:59:48.895Z,12.00
2022-11-27T04:00:48.902Z,11.80
2022-11-27T04:01:49.039Z,10.90
2022-11-27T04:02:48.887Z,12.20
2022-11-27T04:03:48.904Z,12.30
2022-11-27T04:04:48.848Z,12.20
2022-11-27T04:05:48.808Z,12.10
2022-11-27T04:06:48.801Z,11.10
2022-11-27T04:07:48.893Z,12.30
2022-11-27T04:08:48.756Z,11.90
2022-11-27T04:09:48.733Z,11.60
2022-11-27T04:10:50.142Z,11.60
2022-11-27T04:11:48.749Z,11.70
2022-11-27T04:12:48.779Z,10.90
2022-11-27T04:13:48.637Z,11.70
2022-11-27T04:14:48.641Z,12.10
2022-11-27T04:15:48.713Z,11.90
2022-11-27T04:16:48.754Z,11.50
2022-11-27T04:17:48.594Z,10.70
2022-11-27T04:18:48.618Z,10.80
2022-11-27T04:19:48.584Z,10.10
2022-11-27T04:20:48.585Z,11.30
2022-11-27T04:21:48.575Z,11.00
2022-11-27T04:22:48.590Z,10.50
2022-11-27T04:23:48.662Z,10.10
2022-11-27T04:24:48.579Z,10.00
2022-11-27T04:25:48.553Z,10.20
2022-11-27T04:26:48.578Z,9.60
2022-11-27T04:27:48.543Z,10.30
2022-11-27T04:28:48.661Z,10.00
2022-11-27T04:29:48.524Z,10.90
2022-11-27T04:30:48.537Z,10.80
2022-11-27T04:31:48.588Z,10.40
2022-11-27T04:32:48.518Z,11.50
2022-11-27T04:33:48.475Z,9.70
2022-11-27T04:34:48.619Z,10.30
2022-11-27T04:35:48.458Z,10.80
2022-11-27T04:36:48.471Z,10.80
2022-11-27T04:37:48.435Z,10.30
2022-11-27T04:38:48.497Z,10.40
2022-11-27T04:39:48.440Z,10.00
2022-11-27T04:40:48.501Z,9.90
2022-11-27T04:41:48.428Z,9.60
2022-11-27T04:42:48.810Z,10.60
2022-11-27T04:43:48.432Z,11.50
2022-11-27T04:44:48.438Z,10.10
2022-11-27T04:45:48.446Z,9.50
2022-11-27T04:46:48.482Z,10.30
2022-11-27T04:47:48.394Z,10.00
2022-11-27T04:48:48.421Z,10.70
2022-11-27T04:49:48.398Z,10.50
2022-11-27T04:50:48.429Z,10.20
2022-11-27T04:51:48.372Z,10.40
2022-11-27T04:52:48.416Z,10.10
2022-11-27T04:54:55.440Z,10.00
2022-11-27T04:55:52.374Z,9.80
2022-11-27T04:56:52.335Z,10.60
2022-11-27T04:57:52.458Z,10.00
2022-11-27T04:58:52.284Z,9.90
2022-11-27T04:59:52.310Z,10.00
2022-11-27T05:00:52.312Z,10.00
2022-11-27T05:01:52.266Z,10.90
2022-11-27T05:02:52.309Z,10.20
2022-11-27T05:03:52.252Z,10.00
2022-11-27T05:04:52.207Z,10.70
2022-11-27T05:05:52.191Z,9.70
2022-11-27T05:06:52.192Z,10.70
2022-11-27T05:07:52.222Z,9.60
2022-11-27T05:08:52.140Z,10.20
2022-11-27T05:09:52.168Z,10.30
2022-11-27T05:10:52.117Z,9.80
2022-11-27T05:11:52.113Z,10.20
2022-11-27T05:12:52.070Z,9.80
2022-11-27T05:13:52.094Z,9.60
2022-11-27T05:14:52.054Z,9.90
2022-11-27T05:15:52.275Z,9.90
2022-11-27T05:16:52.037Z,9.50
2022-11-27T05:17:52.065Z,9.80
2022-11-27T05:18:52.167Z,9.70
2022-11-27T05:19:52.033Z,10.20
2022-11-27T05:20:52.004Z,9.50
2022-11-27T05:21:52.036Z,9.70
2022-11-27T05:22:52.019Z,9.80
2022-11-27T05:23:52.106Z,9.60
2022-11-27T05:24:51.985Z,10.20
2022-11-27T05:25:51.956Z,9.70
2022-11-27T05:26:51.919Z,10.00
2022-11-27T05:27:51.958Z,10.00
2022-11-27T05:28:52.023Z,10.10
2022-11-27T05:29:51.889Z,10.00
2022-11-27T05:30:51.846Z,10.30
2022-11-27T05:32:56.869Z,9.40
2022-11-27T05:33:56.819Z,9.50
2022-11-27T05:34:56.798Z,9.70
2022-11-27T05:35:56.793Z,9.20
2022-11-27T05:36:56.776Z,9.40
2022-11-27T05:37:56.770Z,9.60
2022-11-27T05:38:56.897Z,9.10
2022-11-27T05:39:56.764Z,10.00
2022-11-27T05:40:56.722Z,10.10
2022-11-27T05:41:57.134Z,10.60
2022-11-27T05:42:56.715Z,9.20
2022-11-27T05:43:56.718Z,9.40
2022-11-27T05:44:58.682Z,9.70
2022-11-27T05:45:56.667Z,9.90
2022-11-27T05:46:56.675Z,10.70
2022-11-27T05:47:56.654Z,9.00
2022-11-27T05:48:56.630Z,9.50
2022-11-27T05:50:01.643Z,9.70
2022-11-27T05:51:01.624Z,9.60
2022-11-27T05:52:01.602Z,10.10
2022-11-27T05:53:01.613Z,9.80
2022-11-27T05:54:01.605Z,9.40
2022-11-27T05:55:01.607Z,9.70
2022-11-27T05:56:01.553Z,9.90
2022-11-27T05:57:01.561Z,9.60
2022-11-27T05:58:01.543Z,9.40
2022-11-27T05:59:01.544Z,10.00
2022-11-27T06:00:01.511Z,10.50
2022-11-27T06:01:01.660Z,10.10
2022-11-27T06:02:01.516Z,9.40
2022-11-27T06:03:01.589Z,10.00
2022-11-27T06:04:01.406Z,9.60
2022-11-27T06:05:01.436Z,9.90
2022-11-27T06:06:01.390Z,10.10
2022-11-27T06:07:01.404Z,10.00
2022-11-27T06:08:01.396Z,10.20
2022-11-27T06:09:01.424Z,9.20
2022-11-27T06:10:01.340Z,10.40
2022-11-27T06:11:01.341Z,10.20
2022-11-27T06:12:01.459Z,10.30
2022-11-27T06:13:01.485Z,10.50
2022-11-27T06:14:01.284Z,9.90
2022-11-27T06:15:01.300Z,10.70
2022-11-27T06:16:01.320Z,10.00
2022-11-27T06:17:01.276Z,10.70
2022-11-27T06:18:01.236Z,10.30
2022-11-27T06:19:01.270Z,9.90
2022-11-27T06:20:01.210Z,9.00
2022-11-27T06:21:01.242Z,9.80
2022-11-27T06:22:01.578Z,9.70
2022-11-27T06:23:01.211Z,10.70
2022-11-27T06:24:01.182Z,9.60
2022-11-27T06:25:01.292Z,9.30
2022-11-27T06:26:01.204Z,9.70
2022-11-27T06:27:01.174Z,9.80
2022-11-27T06:28:01.203Z,9.10
2022-11-27T06:29:01.168Z,10.10
2022-11-27T06:30:01.150Z,9.70
2022-11-27T06:31:01.139Z,10.10
2022-11-27T06:32:01.184Z,11.20
2022-11-27T06:33:01.265Z,10.90
2022-11-27T06:34:01.118Z,10.50
2022-11-27T06:35:01.176Z,10.20
2022-11-27T06:36:01.095Z,11.00
2022-11-27T06:37:01.140Z,9.80
2022-11-27T06:38:01.071Z,10.20
2022-11-27T06:39:01.105Z,10.40
2022-11-27T06:40:01.084Z,10.10
2022-11-27T06:41:01.455Z,10.80
2022-11-27T06:42:01.058Z,9.80
2022-11-27T06:43:01.071Z,10.50
2022-11-27T06:44:01.189Z,10.00
2022-11-27T06:45:05.958Z,10.80
2022-11-27T06:46:06.114Z,10.60
2022-11-27T06:47:05.997Z,9.80
2022-11-27T06:48:06.059Z,11.10
2022-11-27T06:49:05.996Z,10.90
2022-11-27T06:50:06.010Z,10.80
2022-11-27T06:51:05.978Z,9.80
2022-11-27T06:52:06.002Z,10.10
2022-11-27T06:53:05.962Z,10.00
2022-11-27T06:54:06.093Z,10.70
2022-11-27T06:55:05.949Z,10.10
2022-11-27T06:56:05.950Z,9.60
2022-11-27T06:57:05.917Z,9.50
2022-11-27T06:58:05.963Z,10.00
2022-11-27T06:59:05.920Z,10.80
2022-11-27T07:00:06.039Z,10.40
2022-11-27T07:01:05.971Z,9.20
2022-11-27T07:02:06.011Z,9.80
2022-11-27T07:03:05.895Z,9.90
2022-11-27T07:04:05.895Z,10.60
2022-11-27T07:05:06.040Z,10.10
2022-11-27T07:06:05.926Z,10.80
2022-11-27T07:07:05.894Z,10.30
2022-11-27T07:08:05.952Z,9.10
2022-11-27T07:09:05.849Z,10.00
2022-11-27T07:10:05.870Z,10.50
2022-11-27T07:11:05.841Z,9.60
2022-11-27T07:12:05.946Z,9.60
2022-11-27T07:13:05.828Z,9.80
2022-11-27T07:14:05.844Z,10.20
2022-11-27T07:15:05.872Z,10.10
2022-11-27T07:16:05.937Z,10.90
2022-11-27T07:17:05.809Z,11.10
2022-11-27T07:19:59.840Z,11.30
2022-11-27T07:20:59.771Z,10.70
2022-11-27T07:21:59.797Z,10.50
2022-11-27T07:22:59.750Z,11.10
2022-11-27T07:24:04.656Z,11.60
2022-11-27T07:25:04.763Z,11.10
2022-11-27T07:26:04.729Z,11.40
2022-11-27T07:27:04.761Z,10.90
2022-11-27T07:28:04.700Z,10.90
2022-11-27T07:29:04.740Z,11.00
2022-11-27T07:30:04.690Z,10.60
2022-11-27T07:31:04.799Z,11.40
2022-11-27T07:32:04.731Z,10.60
2022-11-27T07:33:04.697Z,10.60
2022-11-27T07:34:07.217Z,11.30
2022-11-27T07:35:04.687Z,11.90
2022-11-27T07:36:04.664Z,11.70
2022-11-27T07:37:04.710Z,11.90
2022-11-27T07:38:04.696Z,10.80
2022-11-27T07:39:04.653Z,11.00
2022-11-27T07:40:04.659Z,10.90
2022-11-27T07:41:04.657Z,11.50
2022-11-27T07:42:30.645Z,11.50
2022-11-27T07:43:04.744Z,11.80
2022-11-27T07:44:04.602Z,11.90
2022-11-27T07:45:04.611Z,13.10
2022-11-27T07:46:04.627Z,11.70
2022-11-27T07:47:04.613Z,12.00
2022-11-27T07:48:04.580Z,12.30
2022-11-27T07:49:04.699Z,11.80
2022-11-27T07:50:04.553Z,13.00
2022-11-27T07:51:04.572Z,13.00
2022-11-27T07:52:04.528Z,16.00
2022-11-27T07:53:04.526Z,16.60
2022-11-27T07:54:04.498Z,17.10
2022-11-27T07:55:04.605Z,16.10
2022-11-27T07:56:04.476Z,15.00
2022-11-27T07:57:04.486Z,15.10
2022-11-27T07:58:04.457Z,14.70
2022-11-27T07:59:04.474Z,14.20
2022-11-27T08:00:04.461Z,14.20
2022-11-27T08:01:04.561Z,15.80
2022-11-27T08:02:04.421Z,16.90
2022-11-27T08:03:04.435Z,15.50
2022-11-27T08:04:04.394Z,15.70
2022-11-27T08:05:09.612Z,15.30
2022-11-27T08:06:04.360Z,15.40
2022-11-27T08:07:04.478Z,13.80
2022-11-27T08:08:04.601Z,15.80
2022-11-27T08:09:04.330Z,16.70
2022-11-27T08:10:04.287Z,17.90
2022-11-27T08:11:04.406Z,17.30
2022-11-27T08:12:10.296Z,16.70
2022-11-27T08:13:10.252Z,17.50
2022-11-27T08:14:10.212Z,17.40
2022-11-27T08:15:10.224Z,15.60
2022-11-27T08:16:10.237Z,14.80
2022-11-27T08:17:10.192Z,15.90
2022-11-27T08:18:10.247Z,16.20
2022-11-27T08:19:10.167Z,18.40
2022-11-27T08:20:10.162Z,18.00
2022-11-27T08:21:10.311Z,18.10
2022-11-27T08:22:10.069Z,18.20
2022-11-27T08:23:10.104Z,19.00
2022-11-27T08:24:10.194Z,18.30
2022-11-27T08:25:10.055Z,19.00
2022-11-27T08:26:10.013Z,18.30
2022-11-27T08:27:10.018Z,16.80
2022-11-27T08:28:09.973Z,15.70
2022-11-27T08:29:09.970Z,15.60
2022-11-27T08:30:10.083Z,16.60
2022-11-27T08:31:10.066Z,17.60
2022-11-27T08:32:10.095Z,17.90
2022-11-27T08:33:09.943Z,16.80
2022-11-27T08:34:09.912Z,17.40
2022-11-27T08:35:09.922Z,16.80
2022-11-27T08:36:14.984Z,16.90
2022-11-27T08:37:09.903Z,17.10
2022-11-27T08:38:09.889Z,17.60
2022-11-27T08:39:09.887Z,17.20
2022-11-27T08:40:09.896Z,15.90
2022-11-27T08:41:09.875Z,16.50
2022-11-27T08:42:09.873Z,16.90
2022-11-27T08:43:09.975Z,15.40
2022-11-27T08:44:09.820Z,16.30
2022-11-27T08:45:09.842Z,15.00
2022-11-27T08:46:09.906Z,16.70
2022-11-27T08:47:09.809Z,17.80
2022-11-27T08:48:09.919Z,20.40
2022-11-27T08:49:09.791Z,21.90
2022-11-27T08:50:09.813Z,20.90
2022-11-27T08:51:09.746Z,21.10
2022-11-27T08:52:09.726Z,17.80
2022-11-27T08:53:09.707Z,19.40
2022-11-27T08:54:09.840Z,18.80
2022-11-27T08:55:09.689Z,17.20
2022-11-27T08:56:09.655Z,19.60
2022-11-27T08:57:09.664Z,19.20
2022-11-27T08:58:09.625Z,17.90
2022-11-27T08:59:09.668Z,18.30
2022-11-27T09:00:09.726Z,17.40
2022-11-27T09:01:09.671Z,16.90
2022-11-27T09:02:09.560Z,18.60
2022-11-27T09:03:09.582Z,18.80
2022-11-27T09:04:09.645Z,18.90
2022-11-27T09:05:09.695Z,17.30
2022-11-27T09:06:09.548Z,17.10
2022-11-27T09:07:09.532Z,18.40
2022-11-27T09:08:09.506Z,18.40
2022-11-27T09:09:09.514Z,20.10
2022-11-27T09:10:09.476Z,18.40
2022-11-27T09:11:09.509Z,18.30
2022-11-27T09:12:09.571Z,18.30
2022-11-27T09:13:09.477Z,19.30
2022-11-27T09:14:09.453Z,19.30
2022-11-27T09:15:09.451Z,24.00
2022-11-27T09:16:09.509Z,26.20
2022-11-27T09:17:09.780Z,24.10
2022-11-27T09:18:09.414Z,25.30
2022-11-27T09:19:09.421Z,22.20
2022-11-27T09:20:09.386Z,19.90
2022-11-27T09:21:09.381Z,18.60
2022-11-27T09:22:09.402Z,19.00
2022-11-27T09:23:14.135Z,18.40
2022-11-27T09:24:09.341Z,18.40
2022-11-27T09:25:09.333Z,18.20
2022-11-27T09:26:09.312Z,18.50
2022-11-27T09:27:09.404Z,19.10
2022-11-27T09:28:09.305Z,18.20
2022-11-27T09:29:09.385Z,18.90
2022-11-27T09:30:09.255Z,18.40
2022-11-27T09:31:09.273Z,18.40
2022-11-27T09:32:09.303Z,19.20
2022-11-27T09:33:09.264Z,18.40
2022-11-27T09:34:09.201Z,17.40
2022-11-27T09:35:09.344Z,19.00
2022-11-27T09:36:09.180Z,20.30
2022-11-27T09:37:09.213Z,19.60
2022-11-27T09:38:09.253Z,18.60
2022-11-27T09:39:09.161Z,19.80
2022-11-27T09:40:09.145Z,19.90
2022-11-27T09:41:09.292Z,21.30
2022-11-27T09:42:09.125Z,21.00
2022-11-27T09:43:09.139Z,21.80
2022-11-27T09:44:09.110Z,21.00
2022-11-27T09:45:09.107Z,19.70
2022-11-27T09:46:09.199Z,21.30
2022-11-27T09:47:09.202Z,20.10
2022-11-27T09:48:09.045Z,21.10
2022-11-27T09:49:09.186Z,19.50
2022-11-27T09:50:09.035Z,20.40
2022-11-27T09:51:09.028Z,19.90
2022-11-27T09:52:08.972Z,19.70
2022-11-27T09:53:09.100Z,20.10
2022-11-27T09:54:08.996Z,20.50
2022-11-27T09:55:08.952Z,20.80
2022-11-27T09:56:08.927Z,19.20
2022-11-27T09:57:08.927Z,21.20
2022-11-27T09:58:08.872Z,18.30
2022-11-27T09:59:09.021Z,20.60
2022-11-27T10:00:08.873Z,17.60
2022-11-27T10:01:08.872Z,19.10
2022-11-27T10:02:08.858Z,19.80
2022-11-27T10:03:08.942Z,19.60
2022-11-27T10:04:08.782Z,20.10
2022-11-27T10:05:14.648Z,19.50
2022-11-27T10:06:13.787Z,19.20
2022-11-27T10:07:13.776Z,20.10
2022-11-27T10:08:13.890Z,19.70
2022-11-27T10:09:13.732Z,20.10
2022-11-27T10:10:13.875Z,20.20
2022-11-27T10:11:13.699Z,20.60
2022-11-27T10:12:13.712Z,20.90
2022-11-27T10:13:13.689Z,18.80
2022-11-27T10:14:13.695Z,19.10
2022-11-27T10:15:13.699Z,19.90
2022-11-27T10:16:13.838Z,21.70
2022-11-27T10:17:13.648Z,20.10
2022-11-27T10:18:13.642Z,19.10
2022-11-27T10:19:13.632Z,22.50
2022-11-27T10:20:13.609Z,21.10
2022-11-27T10:21:13.675Z,21.00
2022-11-27T10:22:21.145Z,21.70
2022-11-27T10:23:19.577Z,21.00
2022-11-27T10:24:19.530Z,20.70
2022-11-27T10:25:19.544Z,19.70
2022-11-27T10:26:19.509Z,19.10
2022-11-27T10:27:19.613Z,19.30
2022-11-27T10:28:19.639Z,19.50
2022-11-27T10:29:19.502Z,19.70
2022-11-27T10:30:19.570Z,19.10
2022-11-27T10:31:19.743Z,18.40
2022-11-27T10:32:53.013Z,18.70
2022-11-27T10:33:19.525Z,19.40
2022-11-27T10:34:19.453Z,18.40
2022-11-27T10:35:19.463Z,19.80
2022-11-27T10:36:19.449Z,18.40
2022-11-27T10:37:19.458Z,20.80
2022-11-27T10:38:19.417Z,18.30
2022-11-27T10:39:19.610Z,19.40
2022-11-27T10:40:19.504Z,19.30
2022-11-27T10:42:19.508Z,18.80
2022-11-27T10:43:19.461Z,20.00
2022-11-27T10:44:19.414Z,21.40
2022-11-27T10:45:23.525Z,24.30
2022-11-27T10:46:23.541Z,48.10
2022-11-27T10:47:23.414Z,37.90
2022-11-27T10:48:23.464Z,31.00
2022-11-27T10:49:23.459Z,28.40
2022-11-27T10:50:23.416Z,24.50
2022-11-27T10:51:23.440Z,20.60
2022-11-27T10:52:27.383Z,21.80
2022-11-27T10:53:27.432Z,20.90
2022-11-27T10:54:27.406Z,19.90
2022-11-27T10:55:27.411Z,21.50
2022-11-27T10:56:27.506Z,20.70
2022-11-27T10:57:27.441Z,20.10
2022-11-27T10:58:27.445Z,19.40
2022-11-27T10:59:31.441Z,18.80
2022-11-27T11:00:27.442Z,18.80
2022-11-27T11:01:27.520Z,18.80
2022-11-27T11:02:27.612Z,18.80
2022-11-27T11:03:27.418Z,18.40
2022-11-27T11:04:38.475Z,18.00
2022-11-27T11:05:45.064Z,18.60
2022-11-27T11:06:31.396Z,18.70
2022-11-27T11:07:31.463Z,18.90
2022-11-27T11:08:31.440Z,18.70
2022-11-27T11:09:31.375Z,18.90
2022-11-27T11:10:31.401Z,19.10
2022-11-27T11:11:31.412Z,18.90
2022-11-27T11:12:35.424Z,17.90
2022-11-27T11:13:35.397Z,17.80
2022-11-27T11:14:35.356Z,18.50
2022-11-27T11:15:35.368Z,17.00
2022-11-27T11:16:35.901Z,17.90
2022-11-27T11:17:35.391Z,18.20
2022-11-27T11:18:35.338Z,17.70
2022-11-27T11:19:35.338Z,18.30
2022-11-27T11:20:35.317Z,18.50
2022-11-27T11:21:35.320Z,18.10
2022-11-27T11:22:35.290Z,21.40
2022-11-27T11:23:35.454Z,28.00
2022-11-27T11:24:35.285Z,38.70
2022-11-27T11:25:39.299Z,38.20
2022-11-27T11:26:44.184Z,34.90
2022-11-27T11:27:44.298Z,28.40
2022-11-27T11:28:44.358Z,25.60
2022-11-27T11:29:44.287Z,19.30
2022-11-27T11:30:44.269Z,21.00
2022-11-27T11:31:44.361Z,17.50
2022-11-27T11:32:44.254Z,18.20
2022-11-27T11:33:44.276Z,19.50
2022-11-27T11:34:44.344Z,17.20
2022-11-27T11:35:44.266Z,17.90
2022-11-27T11:36:44.230Z,17.40
2022-11-27T11:37:44.251Z,17.70
2022-11-27T11:38:44.223Z,18.00
2022-11-27T11:39:44.239Z,18.00
2022-11-27T11:40:44.357Z,17.30
2022-11-27T11:41:44.247Z,16.40
2022-11-27T11:44:38.451Z,16.40
2022-11-27T11:45:38.318Z,16.80
2022-11-27T11:46:38.321Z,16.50
2022-11-27T11:47:38.223Z,17.20
2022-11-27T11:48:38.209Z,18.10
2022-11-27T11:49:38.261Z,17.90
2022-11-27T11:50:38.235Z,17.90
2022-11-27T11:51:38.223Z,16.90
2022-11-27T11:52:38.325Z,17.50
2022-11-27T11:53:38.229Z,17.20
2022-11-27T11:54:38.739Z,16.10
2022-11-27T11:55:38.223Z,16.70
2022-11-27T11:56:38.223Z,16.60
2022-11-27T11:57:38.234Z,16.70
2022-11-27T11:58:38.347Z,15.90
2022-11-27T11:59:42.137Z,18.10
2022-11-27T12:00:53.122Z,18.00
2022-11-27T12:01:38.255Z,17.80
2022-11-27T12:02:38.263Z,17.10
2022-11-27T12:03:38.250Z,20.40
2022-11-27T12:04:38.471Z,17.60
2022-11-27T12:05:38.332Z,15.50
2022-11-27T12:06:38.236Z,16.40
2022-11-27T12:07:38.337Z,17.60
2022-11-27T12:08:38.235Z,17.30
2022-11-27T12:09:38.250Z,16.90
2022-11-27T12:10:38.382Z,16.70
2022-11-27T12:11:38.313Z,15.90
2022-11-27T12:12:38.304Z,16.90
2022-11-27T12:13:38.302Z,17.00
2022-11-27T12:14:38.759Z,16.40
2022-11-27T12:15:38.305Z,17.80
2022-11-27T12:16:38.517Z,16.50
2022-11-27T12:17:38.331Z,17.20
2022-11-27T12:18:38.314Z,16.50
2022-11-27T12:19:38.344Z,17.60
2022-11-27T12:20:38.335Z,18.60
2022-11-27T12:21:38.334Z,19.10
2022-11-27T12:22:38.338Z,16.20
2022-11-27T12:23:38.351Z,17.30
2022-11-27T12:24:38.643Z,17.20
2022-11-27T12:25:38.511Z,19.20
2022-11-27T12:26:38.357Z,16.20
2022-11-27T12:27:38.514Z,15.90
2022-11-27T12:28:38.381Z,16.50
2022-11-27T12:29:38.412Z,18.30
2022-11-27T12:30:38.395Z,15.70
2022-11-27T12:31:38.614Z,18.40
2022-11-27T12:32:38.402Z,16.60
2022-11-27T12:33:38.427Z,16.40
2022-11-27T12:34:38.797Z,17.20
2022-11-27T12:35:38.448Z,17.30
2022-11-27T12:36:38.463Z,16.10
2022-11-27T12:37:38.458Z,15.30
2022-11-27T12:38:38.479Z,19.20
2022-11-27T12:39:38.448Z,15.70
2022-11-27T12:40:38.436Z,14.70
2022-11-27T12:41:38.463Z,15.80
2022-11-27T12:42:38.441Z,17.80
2022-11-27T12:43:38.553Z,14.90
2022-11-27T12:44:38.661Z,15.40
2022-11-27T12:45:38.516Z,16.40
2022-11-27T12:46:38.432Z,16.00
2022-11-27T12:47:40.156Z,16.50
2022-11-27T12:48:38.459Z,18.50
2022-11-27T12:49:38.602Z,17.60
2022-11-27T12:50:38.445Z,17.60
2022-11-27T12:51:38.461Z,17.10
2022-11-27T12:52:38.433Z,17.30
2022-11-27T12:53:38.474Z,18.10
2022-11-27T12:54:39.004Z,15.70
2022-11-27T12:55:38.459Z,15.50
2022-11-27T12:56:38.431Z,14.60
2022-11-27T12:57:38.466Z,16.50
2022-11-27T12:58:38.439Z,18.70
2022-11-27T12:59:38.458Z,17.20
2022-11-27T13:00:38.552Z,16.80
2022-11-27T13:01:38.643Z,15.40
2022-11-27T13:02:38.477Z,14.80
2022-11-27T13:03:38.469Z,14.90
2022-11-27T13:04:38.786Z,14.90
2022-11-27T13:05:38.467Z,15.30
2022-11-27T13:06:38.444Z,15.00
2022-11-27T13:07:38.755Z,15.80
2022-11-27T13:08:38.798Z,15.90